Time;durP1;ratioP1;P1;durP2;ratioP2;P2;SDS_P1;SDS_P2;PMS_P1;PMS_P2;Temp;Humidity;BMP_temperature;BMP_pressure;BME280_temperature;BME280_humidity;BME280_pressure;Samples;Min_cycle;Max_cycle;Signal;HPM_P1;HPM_P2
2023/10/18 00:02:54;;;;;;;6.60;4.10;;;;;;;4.75;73.71;99919.40;78604;1295;3069389;-71
2023/10/18 00:05:22;;;;;;;8.30;4.30;;;;;;;5.15;71.61;99916.15;79659;1296;3014855;-70
2023/10/18 00:07:49;;;;;;;10.90;5.60;;;;;;;5.21;71.06;99917.52;79702;1295;3013022;-71
2023/10/18 00:10:17;;;;;;;7.80;5.00;;;;;;;4.96;71.26;99914.98;78417;1295;3052812;-68
2023/10/18 00:12:45;;;;;;;11.00;5.10;;;;;;;4.78;71.50;99915.69;79739;1298;3018845;-70
2023/10/18 00:15:11;;;;;;;10.70;5.10;;;;;;;4.68;71.52;99915.99;79664;1298;3011895;-70
2023/10/18 00:17:39;;;;;;;8.30;4.70;;;;;;;4.55;71.94;99917.23;78552;1298;3069009;-69
2023/10/18 00:20:13;;;;;;;8.00;4.60;;;;;;;4.38;72.35;99920.49;79578;1296;3011571;-65
2023/10/18 00:22:43;;;;;;;8.40;4.90;;;;;;;4.27;72.91;99919.23;78385;1296;3048690;-68
2023/10/18 00:25:12;;;;;;;6.80;5.10;;;;;;;4.17;73.13;99920.17;79643;1298;3013490;-70
2023/10/18 00:27:46;;;;;;;6.70;4.40;;;;;;;4.06;73.80;99916.14;78396;1298;3052441;-71
2023/10/18 00:30:13;;;;;;;7.20;4.70;;;;;;;4.04;73.73;99913.95;79814;1298;3011663;-70
2023/10/18 00:32:44;;;;;;;10.60;5.50;;;;;;;3.95;74.27;99915.55;78394;1301;3069304;-71
2023/10/18 00:35:20;;;;;;;11.50;5.30;;;;;;;3.95;74.23;99908.81;79567;1296;3011849;-73
2023/10/18 00:37:49;;;;;;;8.40;4.10;;;;;;;4.09;73.99;99907.04;78378;1298;3057896;-70
2023/10/18 00:43:22;;;;;;;14.90;7.40;;;;;;;5.36;70.72;99906.09;78385;1298;3053325;-70
2023/10/18 00:45:51;;;;;;;27.00;10.90;;;;;;;5.25;69.91;99906.95;78296;1296;3048549;-71
2023/10/18 00:48:19;;;;;;;27.40;12.40;;;;;;;5.07;69.57;99903.73;79725;1295;3013118;-71
2023/10/18 00:50:48;;;;;;;25.50;11.90;;;;;;;5.03;69.59;99902.63;79590;1298;3011823;-71
2023/10/18 00:53:25;;;;;;;28.50;11.90;;;;;;;4.91;69.41;99904.55;78212;1296;3050172;-68
2023/10/18 00:55:57;;;;;;;35.00;12.40;;;;;;;4.75;69.70;99904.84;78354;1295;3056430;-71
2023/10/18 00:58:24;;;;;;;29.80;13.10;;;;;;;4.48;70.62;99907.02;79735;1295;3011788;-69
2023/10/18 01:00:51;;;;;;;31.40;12.40;;;;;;;4.36;71.28;99910.66;78570;1298;3028471;-70
2023/10/18 01:03:36;;;;;;;33.50;14.90;;;;;;;4.27;71.67;99907.09;79732;1295;3012583;-68
2023/10/18 01:06:08;;;;;;;28.50;14.00;;;;;;;4.33;71.27;99907.60;78297;1298;3052108;-67
2023/10/18 01:08:38;;;;;;;30.80;14.70;;;;;;;4.40;71.11;99910.71;79558;1298;3013661;-69
2023/10/18 01:11:07;;;;;;;30.30;12.20;;;;;;;4.37;70.80;99911.33;78407;1298;3050293;-71
2023/10/18 01:13:40;;;;;;;29.40;10.40;;;;;;;4.33;71.02;99915.78;79776;1296;3013773;-68
2023/10/18 01:16:15;;;;;;;30.90;14.40;;;;;;;4.17;71.32;99915.67;78447;1296;3053285;-66
2023/10/18 01:18:44;;;;;;;37.70;14.10;;;;;;;4.23;71.37;99918.80;79060;1295;3012056;-70
2023/10/18 01:21:13;;;;;;;33.80;12.00;;;;;;;4.30;71.01;99918.29;79756;1295;3012999;-67
2023/10/18 01:23:53;;;;;;;23.20;10.00;;;;;;;4.16;71.27;99917.42;79206;1295;3011947;-69
2023/10/18 01:26:23;;;;;;;22.80;9.80;;;;;;;4.09;71.78;99919.72;78421;1298;3052454;-70
2023/10/18 01:28:51;;;;;;;17.60;10.20;;;;;;;4.01;72.16;99925.62;79785;1296;3011636;-70
2023/10/18 01:31:20;;;;;;;21.00;9.80;;;;;;;4.19;71.35;99925.86;78428;1298;3026768;-71
2023/10/18 01:33:47;;;;;;;17.60;9.20;;;;;;;4.13;71.49;99924.97;79863;1294;3012821;-68
2023/10/18 01:36:16;;;;;;;19.40;10.00;;;;;;;4.09;71.65;99921.96;79669;1296;3011919;-68
2023/10/18 01:38:48;;;;;;;24.70;11.60;;;;;;;3.97;72.39;99920.52;78642;1295;3050315;-71
2023/10/18 01:41:34;;;;;;;20.40;10.60;;;;;;;4.05;71.86;99919.45;79723;1297;3011381;-68
2023/10/18 01:44:10;;;;;;;30.00;12.30;;;;;;;4.12;71.63;99918.41;78556;1296;3054319;-68
2023/10/18 01:46:45;;;;;;;23.60;11.80;;;;;;;4.09;71.85;99920.06;78457;1296;3068717;-68
2023/10/18 01:49:17;;;;;;;37.00;13.10;;;;;;;4.11;71.61;99919.13;79055;1298;3013744;-68
2023/10/18 01:51:54;;;;;;;41.20;16.20;;;;;;;4.15;71.25;99920.08;79669;1295;3012937;-69
2023/10/18 01:54:25;;;;;;;39.40;13.30;;;;;;;4.11;70.86;99920.00;78333;1299;3057461;-68
2023/10/18 01:56:53;;;;;;;41.60;13.60;;;;;;;4.02;71.25;99919.72;79653;1297;3011482;-68
2023/10/18 01:59:25;;;;;;;34.60;12.00;;;;;;;4.12;70.64;99920.15;78356;1296;3025872;-67
2023/10/18 02:01:53;;;;;;;31.90;10.70;;;;;;;4.19;70.80;99920.31;79506;1298;3011444;-70
2023/10/18 02:04:25;;;;;;;48.90;14.00;;;;;;;4.10;70.60;99921.95;78535;1298;3052289;-70
2023/10/18 02:06:57;;;;;;;40.20;16.00;;;;;;;4.08;69.76;99922.67;79557;1295;3011637;-68
2023/10/18 02:09:36;;;;;;;47.40;17.20;;;;;;;4.23;68.62;99925.41;78479;1296;3067595;-67
2023/10/18 02:12:07;;;;;;;53.00;21.00;;;;;;;4.36;67.51;99924.86;78353;1298;3049963;-68
2023/10/18 02:14:33;;;;;;;46.90;20.50;;;;;;;4.36;67.73;99920.36;79567;1295;3011583;-69
2023/10/18 02:17:06;;;;;;;68.40;28.10;;;;;;;4.41;67.54;99922.48;79279;1298;3011650;-69
2023/10/18 02:19:32;;;;;;;66.40;29.60;;;;;;;4.51;66.80;99926.36;79673;1294;3011926;-64
2023/10/18 02:22:00;;;;;;;64.40;26.70;;;;;;;4.60;66.40;99926.80;78578;1298;3028995;-69
2023/10/18 02:24:27;;;;;;;55.20;21.30;;;;;;;4.66;66.22;99929.58;79664;1298;3012890;-67
2023/10/18 02:26:56;;;;;;;39.50;19.00;;;;;;;4.73;66.59;99929.23;79633;1298;3011878;-69
2023/10/18 02:29:24;;;;;;;29.40;15.70;;;;;;;4.73;67.02;99926.24;78425;1298;3050234;-68
2023/10/18 02:32:04;;;;;;;34.30;15.60;;;;;;;4.73;66.88;99924.01;79695;1295;3012956;-69
2023/10/18 02:34:38;;;;;;;29.20;12.10;;;;;;;4.75;65.78;99926.02;78622;1295;3053374;-69
2023/10/18 02:37:06;;;;;;;26.90;12.40;;;;;;;4.77;65.57;99923.73;79949;1296;3011665;-67
2023/10/18 02:39:34;;;;;;;23.20;11.50;;;;;;;4.72;66.95;99923.34;78449;1298;3054809;-68
2023/10/18 02:42:00;;;;;;;24.30;9.30;;;;;;;4.69;65.96;99928.81;79745;1298;3012694;-70
2023/10/18 02:44:29;;;;;;;18.60;7.40;;;;;;;4.76;64.58;99926.16;79522;1295;3013541;-68
2023/10/18 02:48:00;;;;;;;11.70;5.50;;;;;;;4.87;63.71;99926.89;78523;1298;3056261;-68
2023/10/18 02:49:56;;;;;;;10.50;5.00;;;;;;;4.99;62.13;99928.61;78459;1295;3049202;-65
2023/10/18 02:52:26;;;;;;;17.50;5.60;;;;;;;5.10;62.14;99928.99;79797;1295;3013020;-68
2023/10/18 02:54:57;;;;;;;10.20;5.20;;;;;;;5.15;62.89;99922.05;78448;1298;3052860;-69
2023/10/18 02:57:24;;;;;;;12.20;6.10;;;;;;;5.20;63.18;99923.27;79806;1297;3013049;-67
2023/10/18 02:59:50;;;;;;;21.60;10.10;;;;;;;5.18;63.11;99922.45;79648;1298;3012847;-67
2023/10/18 03:02:24;;;;;;;20.60;7.40;;;;;;;5.20;63.12;99927.98;78413;1298;3057207;-68
2023/10/18 03:04:52;;;;;;;17.20;6.50;;;;;;;5.20;61.67;99929.52;79616;1296;3011866;-67
2023/10/18 03:07:22;;;;;;;14.40;6.30;;;;;;;5.26;61.62;99929.35;78437;1296;3053067;-69
2023/10/18 03:09:51;;;;;;;19.40;7.10;;;;;;;5.35;62.52;99926.09;79857;1298;3011546;-72
2023/10/18 03:12:21;;;;;;;17.30;7.10;;;;;;;5.43;62.02;99923.61;79181;1298;3011330;-69
2023/10/18 03:14:55;;;;;;;23.40;8.10;;;;;;;5.40;61.48;99922.46;79686;1298;3011589;-68
2023/10/18 03:17:28;;;;;;;16.00;6.70;;;;;;;5.34;61.71;99924.23;78470;1298;3069418;-70
2023/10/18 03:19:56;;;;;;;23.40;8.00;;;;;;;5.31;61.51;99918.60;79758;1298;3011611;-66
2023/10/18 03:22:31;;;;;;;17.60;8.60;;;;;;;5.31;61.99;99920.86;78906;1295;3056237;-67
2023/10/18 03:25:00;;;;;;;16.70;6.70;;;;;;;5.30;61.07;99919.66;79315;1297;3011737;-69
2023/10/18 03:27:33;;;;;;;14.90;6.30;;;;;;;5.35;61.26;99915.84;79858;1298;3021224;-67
2023/10/18 03:30:17;;;;;;;;;;;;;;;5.41;60.79;99916.73;78417;1298;3049276;-67
2023/10/18 03:32:49;;;;;;;12.90;5.30;;;;;;;5.42;60.68;99914.08;78720;1298;3053436;-66
2023/10/18 03:35:22;;;;;;;28.20;8.40;;;;;;;5.46;60.97;99915.54;79841;1298;3011771;-68
2023/10/18 03:37:49;;;;;;;29.70;12.50;;;;;;;5.53;61.29;99914.94;78617;1298;3069267;-66
2023/10/18 03:40:20;;;;;;;27.40;11.10;;;;;;;5.42;61.96;99913.54;79761;1295;3013033;-68
2023/10/18 03:42:51;;;;;;;31.30;12.70;;;;;;;5.31;62.27;99918.08;78495;1296;3048827;-66
2023/10/18 03:45:58;;;;;;;27.90;13.30;;;;;;;4.76;66.10;99922.34;79677;1298;3013163;-68
2023/10/18 03:48:23;;;;;;;36.20;16.00;;;;;;;4.27;67.64;99924.43;78277;1298;3052775;-69
2023/10/18 03:50:54;;;;;;;40.80;15.10;;;;;;;4.15;68.07;99922.66;78299;1298;3052016;-68
2023/10/18 03:53:21;;;;;;;33.50;14.40;;;;;;;4.11;68.23;99924.68;79655;1294;3013198;-68
2023/10/18 03:55:55;;;;;;;45.60;17.40;;;;;;;4.05;68.67;99923.61;78371;1298;3027149;-69
2023/10/18 03:58:26;;;;;;;49.50;17.90;;;;;;;3.92;68.29;99925.87;79380;1296;3013689;-66
2023/10/18 04:00:56;;;;;;;46.30;18.40;;;;;;;3.92;68.04;99929.16;79836;1294;3012749;-69
2023/10/18 04:03:29;;;;;;;39.90;14.50;;;;;;;3.97;67.34;99932.34;78571;1296;3026601;-65
2023/10/18 04:06:07;;;;;;;43.30;14.30;;;;;;;4.06;67.29;99934.01;79643;1298;3011461;-69
2023/10/18 04:08:36;;;;;;;65.40;21.00;;;;;;;4.15;64.69;99933.25;78430;1296;3049932;-69
2023/10/18 04:11:03;;;;;;;47.50;14.90;;;;;;;4.29;63.73;99934.44;79660;1298;3012646;-69
2023/10/18 04:13:31;;;;;;;33.10;13.60;;;;;;;4.56;62.72;99930.90;79692;1298;3012440;-67
2023/10/18 04:16:11;;;;;;;35.00;14.10;;;;;;;4.84;60.79;99934.44;78499;1298;3051702;-65
2023/10/18 04:18:41;;;;;;;30.20;10.90;;;;;;;4.99;59.77;99936.58;78462;1298;3056734;-68
2023/10/18 04:21:25;;;;;;;20.20;9.30;;;;;;;5.19;60.03;99938.77;79725;1295;3011705;-69
2023/10/18 04:23:56;;;;;;;24.70;10.60;;;;;;;5.29;59.84;99938.11;78524;1298;3054298;-68
2023/10/18 04:26:25;;;;;;;17.50;7.30;;;;;;;5.28;59.25;99934.00;79890;1299;3011992;-68
2023/10/18 04:28:57;;;;;;;14.30;5.60;;;;;;;5.36;59.99;99937.55;78558;1298;3052452;-67
2023/10/18 04:31:24;;;;;;;15.20;5.00;;;;;;;5.34;60.11;99940.23;79696;1299;3013686;-70
2023/10/18 04:33:55;;;;;;;12.50;5.30;;;;;;;5.30;60.32;99940.70;78538;1296;3068938;-70
2023/10/18 04:36:21;;;;;;;19.70;5.80;;;;;;;5.29;60.57;99945.41;79789;1298;3012809;-69
2023/10/18 04:38:51;;;;;;;17.40;6.40;;;;;;;5.35;60.52;99946.45;79096;1295;3013647;-67
2023/10/18 04:46:31;;;;;;;6.30;3.60;;;;;;;5.54;60.85;99949.84;78643;1298;3053644;-67
2023/10/18 04:54:15;;;;;;;9.90;5.00;;;;;;;5.27;63.83;99948.93;78456;1306;3051746;-67
2023/10/18 04:56:43;;;;;;;10.00;6.40;;;;;;;5.18;64.53;99950.45;79863;1295;3011661;-69
2023/10/18 05:04:20;;;;;;;10.80;7.50;;;;;;;4.70;67.40;99961.92;78491;1298;3050608;-70
2023/10/18 05:06:58;;;;;;;14.70;9.20;;;;;;;4.53;68.31;99963.61;80084;1309;3018987;-68
2023/10/18 05:09:31;;;;;;;13.80;8.00;;;;;;;4.54;68.39;99966.52;78556;1295;3068901;-69
2023/10/18 05:17:47;;;;;;;6.80;4.10;;;;;;;4.33;68.99;99965.02;78701;1297;3050001;-70
2023/10/18 05:22:45;;;;;;;9.10;4.50;;;;;;;4.84;65.83;99964.48;79760;1297;3011639;-68
2023/10/18 05:27:59;;;;;;;17.40;8.40;;;;;;;4.94;67.79;99968.88;79885;1298;3011834;-69
2023/10/18 05:31:03;;;;;;;17.40;9.50;;;;;;;4.72;68.96;99974.19;78514;1298;3069942;-70
2023/10/18 05:33:29;;;;;;;16.90;10.60;;;;;;;4.62;69.39;99974.64;78713;1294;3052133;-69
2023/10/18 05:36:10;;;;;;;20.90;10.50;;;;;;;4.52;70.14;99972.14;78493;1295;3056938;-68
2023/10/18 05:44:00;;;;;;;19.00;8.90;;;;;;;4.37;71.56;99978.80;78622;1299;3049948;-69
2023/10/18 05:46:28;;;;;;;13.50;7.40;;;;;;;4.48;70.87;99977.11;79794;1305;3011960;-68
2023/10/18 05:48:55;;;;;;;14.60;7.20;;;;;;;4.61;70.51;99975.87;78627;1297;3052039;-68
2023/10/18 05:51:26;;;;;;;11.90;6.10;;;;;;;4.60;70.67;99975.38;79808;1298;3013038;-69
2023/10/18 05:54:04;;;;;;;13.50;7.20;;;;;;;4.76;70.06;99976.69;78594;1292;3057162;-70
2023/10/18 05:56:32;;;;;;;14.00;7.30;;;;;;;4.95;69.65;99979.77;78459;1297;3050077;-70
2023/10/18 06:01:46;;;;;;;20.30;8.70;;;;;;;4.96;70.41;99973.83;78640;1305;3051979;-69
2023/10/18 06:07:22;;;;;;;17.30;9.70;;;;;;;5.22;69.81;99968.73;78202;1298;3069702;-71
2023/10/18 06:12:26;;;;;;;15.50;8.10;;;;;;;5.40;69.09;99966.08;78571;1295;3055487;-67
2023/10/18 06:14:54;;;;;;;17.40;8.90;;;;;;;5.47;69.49;99965.68;79895;1298;3013358;-68
2023/10/18 06:17:57;;;;;;;18.80;10.30;;;;;;;5.51;69.69;99965.02;78649;1298;3026171;-72
2023/10/18 06:20:27;;;;;;;19.40;11.50;;;;;;;5.58;70.51;99965.88;78576;1298;3049779;-66
2023/10/18 06:23:08;;;;;;;22.60;12.30;;;;;;;5.74;70.21;99970.05;78534;1297;3052094;-68
2023/10/18 06:25:49;;;;;;;23.30;12.40;;;;;;;5.74;70.08;99969.00;78531;1299;3052370;-72
2023/10/18 06:28:20;;;;;;;20.50;11.70;;;;;;;5.82;69.96;99963.02;78446;1295;3069794;-68
2023/10/18 06:30:54;;;;;;;23.00;11.30;;;;;;;5.87;69.73;99962.31;79723;1298;3013032;-69
2023/10/18 06:33:21;;;;;;;17.60;9.70;;;;;;;5.95;69.29;99960.83;78443;1296;3057310;-73
2023/10/18 06:35:51;;;;;;;19.10;9.50;;;;;;;6.04;67.66;99961.29;79934;1295;3013371;-66
2023/10/18 06:38:24;;;;;;;14.60;9.40;;;;;;;6.18;67.49;99956.63;79335;1296;3012943;-69
2023/10/18 06:40:53;;;;;;;15.70;9.60;;;;;;;6.26;68.52;99951.30;79830;1293;3012193;-67
2023/10/18 06:43:21;;;;;;;13.80;8.10;;;;;;;6.33;68.25;99949.33;78579;1296;3052958;-70
2023/10/18 06:45:51;;;;;;;13.70;8.50;;;;;;;6.38;67.57;99954.52;79884;1297;3013347;-68
2023/10/18 06:48:22;;;;;;;17.90;8.20;;;;;;;6.35;67.33;99950.61;79307;1293;3011682;-68
2023/10/18 06:50:48;;;;;;;16.50;8.30;;;;;;;6.38;67.18;99950.87;79866;1293;3011833;-68
2023/10/18 06:53:15;;;;;;;13.90;7.90;;;;;;;6.48;67.51;99948.95;79819;1293;3011548;-65
2023/10/18 06:55:44;;;;;;;19.40;9.10;;;;;;;6.63;67.74;99945.63;78670;1298;3053863;-72
2023/10/18 06:58:13;;;;;;;20.10;10.10;;;;;;;6.74;67.46;99948.89;79794;1294;3013524;-72
2023/10/18 07:00:43;;;;;;;22.00;11.10;;;;;;;6.82;67.51;99944.05;79815;1298;3011886;-73
2023/10/18 07:03:17;;;;;;;27.10;11.60;;;;;;;6.98;68.00;99941.89;78524;1298;3068258;-73
2023/10/18 07:05:46;;;;;;;14.30;7.60;;;;;;;7.20;67.28;99936.70;79873;1293;3011910;-77
2023/10/18 07:08:33;;;;;;;13.90;7.50;;;;;;;7.29;66.27;99940.86;78636;1299;3057155;-72
2023/10/18 07:11:01;;;;;;;15.90;7.10;;;;;;;7.37;65.51;99935.98;78572;1293;3049501;-70
2023/10/18 07:13:34;;;;;;;13.50;6.90;;;;;;;7.39;64.54;99936.47;79931;1292;3012871;-70
2023/10/18 07:16:12;;;;;;;14.50;6.40;;;;;;;7.44;63.67;99943.92;78694;1298;3052138;-70
2023/10/18 07:18:42;;;;;;;17.40;7.80;;;;;;;7.47;62.98;99935.09;78500;1298;3052318;-72
2023/10/18 07:21:09;;;;;;;14.00;6.50;;;;;;;7.51;62.79;99938.42;79968;1298;3013340;-69
2023/10/18 07:23:39;;;;;;;8.80;5.40;;;;;;;7.54;61.78;99933.25;79627;1295;3013607;-69
2023/10/18 07:26:07;;;;;;;19.90;7.00;;;;;;;7.57;60.46;99936.98;79648;1296;3013074;-70
2023/10/18 07:28:36;;;;;;;12.30;6.90;;;;;;;7.63;61.37;99933.08;79490;1292;3011838;-69
2023/10/18 07:31:08;;;;;;;10.40;5.30;;;;;;;7.73;61.58;99934.92;80059;1292;3013168;-68
2023/10/18 07:33:40;;;;;;;11.20;5.90;;;;;;;7.73;60.47;99933.33;78634;1298;3052417;-67
2023/10/18 07:36:11;;;;;;;11.80;5.70;;;;;;;7.82;60.71;99929.48;79775;1295;3013777;-68
2023/10/18 07:38:47;;;;;;;13.20;5.20;;;;;;;7.84;60.34;99933.60;78660;1298;3069061;-68
2023/10/18 07:41:18;;;;;;;16.00;6.20;;;;;;;7.87;60.20;99931.20;79192;1296;3011665;-68
2023/10/18 07:43:44;;;;;;;15.40;6.40;;;;;;;7.85;60.14;99931.78;79725;1295;3011647;-68
2023/10/18 07:46:24;;;;;;;14.70;6.40;;;;;;;8.00;59.24;99927.69;79244;1295;3011671;-68
2023/10/18 07:49:04;;;;;;;15.20;7.40;;;;;;;8.12;59.10;99929.10;78675;1294;3049238;-67
2023/10/18 07:51:32;;;;;;;37.90;13.60;;;;;;;8.17;59.32;99929.90;78556;1295;3052179;-67
2023/10/18 07:53:59;;;;;;;26.30;9.70;;;;;;;8.28;58.52;99931.20;79748;1297;3015144;-69
2023/10/18 07:56:31;;;;;;;24.20;9.10;;;;;;;8.37;58.24;99932.88;79789;1296;3011571;-69
2023/10/18 08:01:51;;;;;;;26.00;10.20;;;;;;;8.45;57.47;99937.45;78484;1297;3050824;-70
2023/10/18 08:04:21;;;;;;;18.50;7.40;;;;;;;8.43;56.70;99938.57;79316;1295;3011726;-69
2023/10/18 08:06:50;;;;;;;26.90;9.60;;;;;;;8.50;56.42;99935.16;79751;1292;3013422;-68
2023/10/18 08:09:28;;;;;;;36.80;13.10;;;;;;;8.69;57.11;99930.46;79324;1293;3011983;-66
2023/10/18 08:12:00;;;;;;;22.40;9.20;;;;;;;8.83;57.10;99930.15;78600;1296;3054200;-68
2023/10/18 08:14:27;;;;;;;22.80;9.00;;;;;;;8.97;56.76;99930.05;79766;1296;3012817;-68
2023/10/18 08:17:05;;;;;;;19.70;7.40;;;;;;;8.96;56.22;99930.98;78526;1297;3028782;-67
2023/10/18 08:19:45;;;;;;;13.10;5.50;;;;;;;9.04;55.72;99930.78;78457;1298;3052195;-66
2023/10/18 08:22:22;;;;;;;10.70;3.90;;;;;;;8.71;54.36;99935.96;78528;1297;3069324;-68
2023/10/18 08:24:50;;;;;;;8.20;3.80;;;;;;;8.78;54.60;99937.23;78459;1295;3051931;-68
2023/10/18 08:27:17;;;;;;;10.40;4.80;;;;;;;8.84;54.90;99931.36;79813;1295;3019607;-70
2023/10/18 08:29:45;;;;;;;13.00;4.70;;;;;;;8.77;55.09;99929.91;79741;1298;3011841;-66
2023/10/18 08:32:16;;;;;;;8.40;4.10;;;;;;;8.86;55.33;99930.02;78497;1298;3049260;-68
2023/10/18 08:34:44;;;;;;;9.60;3.80;;;;;;;9.08;55.24;99930.40;79835;1298;3011555;-67
2023/10/18 08:37:15;;;;;;;9.20;4.00;;;;;;;9.20;54.85;99919.70;78632;1293;3026429;-69
2023/10/18 08:39:52;;;;;;;5.70;3.80;;;;;;;9.17;53.89;99915.31;79855;1298;3011539;-68
2023/10/18 08:42:24;;;;;;;6.00;3.20;;;;;;;9.18;53.31;99918.23;78520;1296;3052385;-68
2023/10/18 08:44:55;;;;;;;4.60;2.70;;;;;;;9.36;52.37;99919.31;79738;1294;3011658;-67
2023/10/18 08:47:24;;;;;;;7.10;3.10;;;;;;;9.31;51.66;99919.54;78617;1297;3049824;-68
2023/10/18 08:49:50;;;;;;;5.20;3.20;;;;;;;9.38;51.99;99917.47;79890;1293;3013708;-66
2023/10/18 08:52:23;;;;;;;8.90;3.80;;;;;;;9.51;53.07;99911.75;79802;1296;3011914;-67
2023/10/18 08:54:51;;;;;;;7.40;3.50;;;;;;;9.62;53.04;99915.05;78627;1295;3052843;-69
2023/10/18 08:57:32;;;;;;;9.40;4.00;;;;;;;9.70;52.77;99912.56;79631;1298;3012873;-72
2023/10/18 09:03:10;;;;;;;7.20;3.20;;;;;;;9.88;50.14;99902.58;78237;1292;3050101;-70
2023/10/18 09:05:37;;;;;;;9.60;2.70;;;;;;;9.85;49.07;99903.41;79989;1292;3011418;-73
2023/10/18 09:08:05;;;;;;;6.50;2.70;;;;;;;9.96;47.41;99900.23;78534;1298;3028284;-72
2023/10/18 09:18:22;;;;;;;6.10;2.10;;;;;;;9.91;46.50;99895.41;78468;1292;3052259;-69
2023/10/18 09:20:48;;;;;;;4.20;2.40;;;;;;;9.85;45.06;99885.08;79926;1293;3013576;-72
2023/10/18 09:23:21;;;;;;;4.00;2.20;;;;;;;9.95;45.63;99884.70;79808;1292;3011654;-69
2023/10/18 09:25:49;;;;;;;4.80;2.40;;;;;;;10.01;45.26;99882.30;78592;1297;3050391;-69
2023/10/18 09:28:35;;;;;;;3.90;1.90;;;;;;;10.00;45.57;99879.73;79868;1297;3013233;-69
2023/10/18 09:31:10;;;;;;;5.10;2.40;;;;;;;10.02;45.02;99876.13;78662;1292;3068965;-66
2023/10/18 09:33:56;;;;;;;7.20;3.00;;;;;;;10.11;46.10;99874.98;78636;1292;3050322;-66
2023/10/18 09:36:24;;;;;;;7.40;2.60;;;;;;;10.31;45.70;99871.13;78745;1292;3056526;-69
2023/10/18 09:38:55;;;;;;;4.50;2.40;;;;;;;10.53;45.09;99862.83;79797;1292;3013055;-69
2023/10/18 09:41:30;;;;;;;4.00;1.90;;;;;;;10.55;44.14;99859.58;78746;1297;3050713;-68
2023/10/18 09:44:01;;;;;;;7.20;2.50;;;;;;;10.31;43.55;99867.63;78524;1298;3052784;-67
2023/10/18 09:46:27;;;;;;;3.10;1.90;;;;;;;10.50;43.63;99861.41;79990;1298;3013094;-69
2023/10/18 09:48:57;;;;;;;5.20;1.80;;;;;;;10.73;43.25;99861.90;79585;1292;3011639;-69
2023/10/18 09:51:26;;;;;;;3.90;2.30;;;;;;;10.87;43.86;99855.36;78682;1292;3056747;-66
2023/10/18 09:53:54;;;;;;;4.00;2.20;;;;;;;10.91;42.56;99854.63;79685;1294;3014124;-68
2023/10/18 09:56:26;;;;;;;4.80;2.20;;;;;;;10.58;42.71;99851.34;80148;1297;3011713;-69
2023/10/18 09:59:05;;;;;;;4.50;2.20;;;;;;;10.46;43.42;99845.70;78511;1297;3051845;-68
2023/10/18 10:01:55;;;;;;;5.00;2.60;;;;;;;10.46;44.28;99846.39;78734;1298;3052049;-69
2023/10/18 10:04:21;;;;;;;4.10;2.40;;;;;;;10.75;43.92;99840.77;78625;1295;3070223;-67
2023/10/18 10:06:52;;;;;;;4.50;2.30;;;;;;;11.00;43.51;99833.59;80118;1292;3012840;-68
2023/10/18 10:09:29;;;;;;;3.60;2.10;;;;;;;10.94;43.93;99845.17;78618;1295;3049159;-72
2023/10/18 10:11:56;;;;;;;4.20;2.30;;;;;;;10.81;44.13;99839.55;78366;1292;3052893;-65
2023/10/18 10:14:23;;;;;;;7.40;2.60;;;;;;;10.68;44.53;99835.74;79744;1300;3012767;-64
2023/10/18 10:17:00;;;;;;;4.50;2.00;;;;;;;10.58;43.54;99831.02;79993;1298;3013560;-70
2023/10/18 10:19:29;;;;;;;4.10;1.90;;;;;;;10.61;43.19;99826.48;78673;1296;3068626;-68
2023/10/18 10:22:04;;;;;;;4.30;1.90;;;;;;;10.81;43.08;99825.19;79840;1292;3015904;-72
2023/10/18 10:24:42;;;;;;;3.30;2.10;;;;;;;10.98;43.27;99817.41;78623;1295;3050109;-71
2023/10/18 10:32:52;;;;;;;3.80;1.90;;;;;;;10.73;44.61;99803.58;78566;1292;3052791;-69
2023/10/18 10:35:24;;;;;;;5.30;2.60;;;;;;;10.52;44.90;99803.64;79828;1292;3011678;-69
2023/10/18 10:37:59;;;;;;;5.80;2.50;;;;;;;10.33;45.38;99803.44;78490;1292;3068015;-69
2023/10/18 10:43:02;;;;;;;9.10;2.60;;;;;;;10.77;44.84;99792.83;79766;1292;3012636;-67
2023/10/18 10:51:20;;;;;;;5.20;2.10;;;;;;;10.72;44.13;99788.02;77219;1298;3470289;-67
2023/10/18 10:53:57;;;;;;;5.50;2.50;;;;;;;10.72;44.19;99782.41;78756;1297;3052978;-68
2023/10/18 10:56:30;;;;;;;4.20;2.30;;;;;;;10.99;44.71;99780.73;78561;1292;3068328;-69
2023/10/18 11:01:44;;;;;;;5.60;2.40;;;;;;;11.42;44.13;99777.52;78495;1292;3056152;-69
2023/10/18 11:04:11;;;;;;;6.30;2.50;;;;;;;11.35;44.30;99771.45;78553;1292;3048559;-68
2023/10/18 11:06:42;;;;;;;4.10;2.50;;;;;;;11.59;43.80;99773.55;79761;1298;3018649;-69
2023/10/18 11:09:16;;;;;;;3.70;2.10;;;;;;;11.76;43.16;99765.70;78934;1298;3052177;-68
2023/10/18 11:11:45;;;;;;;4.60;2.20;;;;;;;11.80;42.95;99764.23;79871;1295;3013561;-68
2023/10/18 11:14:18;;;;;;;5.60;1.90;;;;;;;12.01;42.67;99756.09;78699;1292;3068685;-69
2023/10/18 11:16:46;;;;;;;4.70;2.20;;;;;;;11.94;41.34;99755.45;79942;1292;3011591;-67
2023/10/18 11:19:15;;;;;;;5.50;1.70;;;;;;;11.96;41.32;99751.35;78765;1298;3056693;-67
2023/10/18 11:21:42;;;;;;;2.90;1.90;;;;;;;11.85;41.48;99753.73;79738;1295;3014988;-68
2023/10/18 11:24:11;;;;;;;6.10;2.30;;;;;;;11.72;41.57;99750.27;79907;1295;3011956;-67
2023/10/18 11:26:41;;;;;;;4.10;1.90;;;;;;;11.28;41.80;99746.62;78482;1300;3051624;-68
2023/10/18 11:29:07;;;;;;;4.60;1.90;;;;;;;11.26;42.30;99742.52;79935;1294;3015819;-66
2023/10/18 11:31:38;;;;;;;3.80;2.10;;;;;;;11.42;42.32;99736.13;79971;1293;3013295;-67
2023/10/18 11:34:06;;;;;;;5.00;2.10;;;;;;;11.69;42.44;99733.11;78656;1293;3057045;-67
2023/10/18 11:36:34;;;;;;;5.40;2.40;;;;;;;11.73;42.35;99740.07;79812;1295;3013018;-66
2023/10/18 11:39:07;;;;;;;4.70;2.20;;;;;;;11.65;42.07;99742.83;79774;1292;3013806;-65
2023/10/18 11:41:36;;;;;;;6.90;2.50;;;;;;;11.49;42.69;99734.12;78562;1297;3052918;-65
2023/10/18 11:44:10;;;;;;;4.20;1.80;;;;;;;11.48;43.27;99732.11;79758;1297;3012975;-64
2023/10/18 11:46:49;;;;;;;5.00;1.70;;;;;;;11.78;42.53;99719.92;78503;1292;3051581;-69
2023/10/18 11:49:20;;;;;;;3.90;2.30;;;;;;;11.88;42.27;99714.91;78439;1293;3056593;-65
2023/10/18 11:51:51;;;;;;;5.50;2.30;;;;;;;11.85;42.24;99717.58;79927;1292;3011756;-65
2023/10/18 11:54:34;;;;;;;6.40;2.40;;;;;;;11.58;42.45;99716.95;78696;1298;3053795;-67
2023/10/18 11:57:07;;;;;;;5.40;2.20;;;;;;;11.48;42.31;99712.29;78499;1292;3049171;-68
2023/10/18 12:02:51;;;;;;;3.70;1.70;;;;;;;11.87;41.96;99700.45;78177;1299;3052302;-68
2023/10/18 12:05:23;;;;;;;2.50;1.80;;;;;;;12.02;41.76;99695.16;79689;1297;3013402;-68
2023/10/18 12:07:53;;;;;;;5.60;2.00;;;;;;;12.15;41.41;99693.28;78837;1292;3056342;-66
2023/10/18 12:10:26;;;;;;;7.00;3.30;;;;;;;12.33;41.23;99688.81;79792;1291;3013100;-69
2023/10/18 12:12:55;;;;;;;3.90;2.40;;;;;;;12.22;40.87;99691.27;78551;1292;3052336;-68
2023/10/18 12:15:25;;;;;;;12.40;4.00;;;;;;;12.35;40.25;99690.77;79856;1295;3013581;-69
2023/10/18 12:17:55;;;;;;;5.50;2.10;;;;;;;12.43;40.20;99692.88;78694;1299;3051250;-68
2023/10/18 12:20:34;;;;;;;3.60;2.20;;;;;;;12.32;39.50;99691.49;79836;1294;3013560;-66
2023/10/18 12:23:04;;;;;;;4.80;2.80;;;;;;;12.45;39.66;99690.29;78678;1292;3051832;-68
2023/10/18 12:25:32;;;;;;;10.00;2.30;;;;;;;12.43;39.87;99691.16;79778;1292;3013171;-70
2023/10/18 12:28:00;;;;;;;5.90;2.60;;;;;;;12.18;40.23;99696.05;78802;1296;3028640;-68
2023/10/18 12:30:39;;;;;;;5.50;2.80;;;;;;;12.16;40.30;99693.89;79747;1293;3011664;-67
2023/10/18 12:33:14;;;;;;;7.20;3.50;;;;;;;12.39;40.19;99688.95;78839;1295;3052397;-69
2023/10/18 12:35:43;;;;;;;3.90;2.40;;;;;;;12.56;40.25;99684.31;79301;1295;3011722;-70
2023/10/18 12:38:15;;;;;;;6.60;3.50;;;;;;;12.69;40.31;99685.40;79817;1293;3013694;-68
2023/10/18 12:40:52;;;;;;;7.40;3.50;;;;;;;12.80;39.72;99680.96;78469;1298;3051913;-68
2023/10/18 12:43:20;;;;;;;6.80;4.00;;;;;;;12.89;39.98;99677.05;78459;1292;3056904;-67
2023/10/18 12:45:50;;;;;;;6.10;3.90;;;;;;;12.72;40.07;99675.17;79922;1295;3013087;-70
2023/10/18 12:48:24;;;;;;;5.50;3.90;;;;;;;12.81;40.06;99675.31;78645;1298;3050441;-72
2023/10/18 12:50:51;;;;;;;6.80;4.10;;;;;;;12.59;39.20;99667.58;81135;1294;3011627;-68
2023/10/18 12:55:58;;;;;;;8.70;4.40;;;;;;;12.54;39.03;99659.86;79699;1295;3011509;-69
2023/10/18 12:58:29;;;;;;;6.20;4.10;;;;;;;12.69;39.32;99660.95;78473;1295;3052048;-70